Time;durP1;ratioP1;P1;durP2;ratioP2;P2;SDS_P1;SDS_P2;PMS_P1;PMS_P2;Temp;Humidity;BMP_temperature;BMP_pressure;BME280_temperature;BME280_humidity;BME280_pressure;Samples;Min_cycle;Max_cycle;Signal;HPM_P1;HPM_P2
2023/11/03 00:00:19;;;;;;;7.38;2.30;;;;;;;6.26;100.00;97671.44;5045822;28;20058;-70
2023/11/03 00:02:44;;;;;;;8.50;2.50;;;;;;;6.31;100.00;97679.19;5061932;28;20445;-70
2023/11/03 00:05:12;;;;;;;9.20;2.83;;;;;;;6.40;100.00;97671.03;5062638;28;20026;-70
2023/11/03 00:07:38;;;;;;;7.15;2.30;;;;;;;6.41;100.00;97686.75;5063038;28;20487;-70
2023/11/03 00:10:09;;;;;;;7.13;2.50;;;;;;;6.40;100.00;97684.16;5061740;28;20464;-70
2023/11/03 00:12:36;;;;;;;7.22;2.53;;;;;;;6.28;100.00;97680.13;5063112;28;20029;-70
2023/11/03 00:15:02;;;;;;;7.07;2.40;;;;;;;6.34;100.00;97673.84;5061569;28;20522;-70
2023/11/03 00:17:27;;;;;;;6.97;2.47;;;;;;;6.31;100.00;97673.94;5064241;28;20020;-70
2023/11/03 00:19:53;;;;;;;7.65;2.30;;;;;;;6.30;100.00;97686.19;5060705;28;20472;-70
2023/11/03 00:22:18;;;;;;;6.88;2.30;;;;;;;6.39;100.00;97678.06;5062653;28;20097;-70
2023/11/03 00:24:44;;;;;;;6.75;2.38;;;;;;;6.35;100.00;97683.44;5061714;28;20024;-70
2023/11/03 00:27:10;;;;;;;5.65;2.38;;;;;;;6.35;100.00;97675.56;5062448;28;20033;-69
2023/11/03 00:29:36;;;;;;;10.32;2.60;;;;;;;6.35;100.00;97699.16;5063820;28;20021;-69
2023/11/03 00:32:02;;;;;;;8.15;2.40;;;;;;;6.29;100.00;97702.81;5063267;28;20029;-70
2023/11/03 00:34:28;;;;;;;8.63;2.40;;;;;;;6.36;100.00;97690.41;5084177;28;20069;-70
2023/11/03 00:36:53;;;;;;;5.80;2.22;;;;;;;6.38;100.00;97712.22;5080580;28;20024;-70
2023/11/03 00:39:18;;;;;;;7.15;2.20;;;;;;;6.32;100.00;97705.38;5083503;28;20104;-70
2023/11/03 00:41:52;;;;;;;5.22;2.38;;;;;;;6.35;100.00;97735.91;5081892;28;20477;-69
2023/11/03 00:44:18;;;;;;;6.47;2.30;;;;;;;6.36;100.00;97748.13;5083419;28;20111;-70
2023/11/03 00:46:44;;;;;;;5.90;2.40;;;;;;;6.49;100.00;97714.53;5081863;28;20035;-70
2023/11/03 00:49:12;;;;;;;11.57;2.40;;;;;;;6.36;100.00;97743.72;5082230;28;20035;-70
2023/11/03 00:51:38;;;;;;;8.00;2.30;;;;;;;6.41;100.00;97749.72;5082700;28;20048;-70
2023/11/03 00:54:03;;;;;;;8.13;2.20;;;;;;;6.37;100.00;97741.97;5081260;28;20078;-70
2023/11/03 00:56:30;;;;;;;6.78;2.30;;;;;;;6.40;100.00;97741.91;5084127;28;20377;-70
2023/11/03 00:58:55;;;;;;;10.48;2.20;;;;;;;6.38;100.00;97739.31;5080354;28;20024;-69
2023/11/03 01:01:21;;;;;;;7.82;2.20;;;;;;;6.38;100.00;97754.22;5084199;28;20020;-70
2023/11/03 01:03:47;;;;;;;6.70;2.40;;;;;;;6.41;100.00;97752.34;5085241;28;20031;-70
2023/11/03 01:06:12;;;;;;;7.88;2.20;;;;;;;6.50;100.00;97763.50;5086875;28;20035;-70
2023/11/03 01:08:38;;;;;;;6.43;2.22;;;;;;;6.51;100.00;97763.44;5086444;28;20031;-70
2023/11/03 01:11:04;;;;;;;6.88;2.10;;;;;;;6.56;100.00;97761.53;5085120;28;20029;-70
2023/11/03 01:13:30;;;;;;;5.25;2.03;;;;;;;6.61;100.00;97757.03;5087328;28;20044;-70
2023/11/03 01:15:56;;;;;;;4.78;2.20;;;;;;;6.60;100.00;97763.19;5084021;28;20170;-69
2023/11/03 01:18:21;;;;;;;5.15;2.10;;;;;;;6.63;100.00;97768.34;5069422;28;20095;-69
2023/11/03 01:20:51;;;;;;;5.68;2.00;;;;;;;6.74;100.00;97757.53;5084672;28;20040;-69
2023/11/03 01:23:17;;;;;;;4.05;2.03;;;;;;;6.72;100.00;97763.75;5086779;28;20048;-69
2023/11/03 01:25:44;;;;;;;3.97;2.00;;;;;;;6.90;100.00;97757.97;5085473;28;20470;-69
2023/11/03 01:28:09;;;;;;;9.88;2.10;;;;;;;6.92;100.00;97779.75;5085333;28;20524;-69
2023/11/03 01:30:35;;;;;;;7.43;2.20;;;;;;;6.90;100.00;97760.59;5085972;28;20064;-69
2023/11/03 01:33:00;;;;;;;6.85;2.05;;;;;;;6.99;100.00;97759.44;5084259;28;20040;-69
2023/11/03 01:35:25;;;;;;;6.88;2.15;;;;;;;7.13;100.00;97754.59;5087270;28;20027;-69
2023/11/03 01:37:53;;;;;;;6.47;2.00;;;;;;;7.30;100.00;97751.47;5084000;28;20020;-69
2023/11/03 01:40:19;;;;;;;4.28;1.90;;;;;;;7.36;100.00;97754.81;5086595;28;20440;-69
2023/11/03 01:42:47;;;;;;;5.13;1.98;;;;;;;7.47;100.00;97750.06;5084681;28;20402;-69
2023/11/03 01:45:13;;;;;;;6.68;2.00;;;;;;;7.44;100.00;97734.38;5085437;28;20361;-68
2023/11/03 01:47:38;;;;;;;5.38;1.80;;;;;;;7.52;100.00;97755.19;5085582;28;20031;-69
2023/11/03 01:50:04;;;;;;;7.63;2.00;;;;;;;7.55;100.00;97749.81;5066475;28;20379;-69
2023/11/03 01:52:31;;;;;;;6.82;2.00;;;;;;;7.58;100.00;97745.31;5086613;28;20038;-69
2023/11/03 01:54:57;;;;;;;8.25;1.90;;;;;;;7.60;100.00;97748.78;5083532;28;20033;-69
2023/11/03 01:57:23;;;;;;;5.38;1.80;;;;;;;7.61;100.00;97766.25;5086746;28;20032;-69
2023/11/03 01:59:52;;;;;;;6.57;1.95;;;;;;;7.64;100.00;97795.06;5083665;28;20122;-69
2023/11/03 02:02:19;;;;;;;6.93;2.00;;;;;;;7.62;100.00;97749.56;5086019;28;20021;-69
2023/11/03 02:04:44;;;;;;;5.35;1.88;;;;;;;7.69;100.00;97773.91;5066506;28;20033;-70
2023/11/03 02:07:10;;;;;;;5.90;1.92;;;;;;;7.66;100.00;97774.84;5084660;28;20036;-69
2023/11/03 02:09:35;;;;;;;7.10;2.10;;;;;;;7.74;100.00;97771.97;5086050;28;20032;-68
2023/11/03 02:12:01;;;;;;;6.57;1.77;;;;;;;7.71;100.00;97787.00;5083068;28;20101;-68
2023/11/03 02:14:26;;;;;;;5.85;2.08;;;;;;;7.71;100.00;97789.63;5086441;28;20028;-68
2023/11/03 02:16:52;;;;;;;7.13;2.00;;;;;;;7.57;100.00;97772.53;5083358;28;20105;-69
2023/11/03 02:19:17;;;;;;;5.70;2.20;;;;;;;7.56;100.00;97804.97;5085479;28;20043;-69
2023/11/03 02:21:43;;;;;;;6.03;1.90;;;;;;;7.37;100.00;97812.59;5084626;28;20028;-68
2023/11/03 02:24:09;;;;;;;9.70;2.08;;;;;;;7.32;100.00;97807.47;5084155;28;20021;-69
2023/11/03 02:26:35;;;;;;;8.80;2.20;;;;;;;7.40;100.00;97803.75;5085306;28;20035;-68
2023/11/03 02:29:03;;;;;;;10.82;2.20;;;;;;;7.52;100.00;97808.59;5083281;28;20040;-69
2023/11/03 02:31:29;;;;;;;10.15;2.10;;;;;;;7.53;100.00;97820.84;5086022;28;20158;-69
2023/11/03 02:33:54;;;;;;;7.50;2.20;;;;;;;7.57;100.00;97818.97;5082802;28;20206;-69
2023/11/03 02:36:21;;;;;;;10.70;2.05;;;;;;;7.67;100.00;97818.66;5085674;28;20032;-69
2023/11/03 02:38:48;;;;;;;10.52;2.28;;;;;;;7.67;100.00;97820.41;5083309;28;20040;-69
2023/11/03 02:41:13;;;;;;;8.82;2.17;;;;;;;7.67;100.00;97805.50;5084535;28;20032;-69
2023/11/03 02:43:39;;;;;;;12.57;2.35;;;;;;;7.76;100.00;97816.63;5084666;28;20445;-68
2023/11/03 02:46:05;;;;;;;8.52;2.00;;;;;;;7.78;100.00;97826.19;5065044;28;20037;-69
2023/11/03 02:48:31;;;;;;;9.88;2.20;;;;;;;7.83;100.00;97813.75;5085361;28;20067;-69
2023/11/03 02:50:58;;;;;;;9.93;2.20;;;;;;;7.79;100.00;97796.34;5082440;28;20032;-70
2023/11/03 02:53:24;;;;;;;11.80;2.30;;;;;;;7.82;100.00;97809.41;5082224;28;20032;-69
2023/11/03 02:55:49;;;;;;;10.40;2.13;;;;;;;7.88;100.00;97787.28;5085105;28;20046;-70
2023/11/03 02:58:15;;;;;;;9.10;2.00;;;;;;;7.91;100.00;97821.38;5065382;28;20504;-69
2023/11/03 03:00:41;;;;;;;11.10;2.25;;;;;;;7.76;100.00;97821.88;5083547;28;20036;-69
2023/11/03 03:03:07;;;;;;;12.30;2.42;;;;;;;7.76;100.00;97820.13;5084426;28;20474;-69
2023/11/03 03:05:33;;;;;;;10.90;2.50;;;;;;;7.75;100.00;97820.16;5082608;28;20032;-69
2023/11/03 03:07:58;;;;;;;8.18;2.20;;;;;;;7.82;100.00;97838.31;5085421;28;20024;-69
2023/11/03 03:10:24;;;;;;;12.52;2.35;;;;;;;7.88;100.00;97828.50;5064151;28;20024;-69
2023/11/03 03:12:49;;;;;;;8.68;2.30;;;;;;;7.91;100.00;97837.16;5085243;28;20025;-70
2023/11/03 03:15:15;;;;;;;9.65;2.45;;;;;;;7.88;100.00;97846.91;5064908;28;20047;-69
2023/11/03 03:17:41;;;;;;;10.98;2.50;;;;;;;7.82;100.00;97845.34;5083216;28;20024;-70
2023/11/03 03:20:06;;;;;;;10.43;2.30;;;;;;;7.68;100.00;97836.13;5084266;28;20459;-69
2023/11/03 03:22:32;;;;;;;12.18;2.65;;;;;;;7.66;100.00;97832.69;5064021;28;20037;-70
2023/11/03 03:24:57;;;;;;;14.80;2.70;;;;;;;7.53;100.00;97846.25;5084644;28;20059;-68
2023/11/03 03:27:23;;;;;;;13.23;2.60;;;;;;;7.51;100.00;97856.81;5081824;28;20078;-70
2023/11/03 03:29:48;;;;;;;11.10;2.60;;;;;;;7.29;100.00;97864.50;5083836;28;20075;-69
2023/11/03 03:32:14;;;;;;;12.23;2.60;;;;;;;7.26;100.00;97865.44;5083011;28;20034;-69
2023/11/03 03:34:39;;;;;;;12.75;2.45;;;;;;;7.19;100.00;97857.78;5083043;28;20028;-69
2023/11/03 03:37:05;;;;;;;12.93;2.60;;;;;;;7.02;100.00;97897.69;5066061;28;20036;-68
2023/11/03 03:39:31;;;;;;;14.65;2.95;;;;;;;6.86;100.00;97897.25;5081511;28;20491;-68
2023/11/03 03:41:56;;;;;;;13.55;2.90;;;;;;;6.78;100.00;97900.09;5084912;28;20036;-69
2023/11/03 03:44:21;;;;;;;17.52;2.90;;;;;;;6.72;100.00;97903.72;5081876;28;20027;-69
2023/11/03 03:46:47;;;;;;;16.70;2.90;;;;;;;6.68;100.00;97901.22;5084012;28;20032;-69
2023/11/03 03:49:12;;;;;;;13.70;2.75;;;;;;;6.74;100.00;97908.94;5082708;28;20032;-71
2023/11/03 03:51:38;;;;;;;16.60;3.08;;;;;;;6.64;100.00;97934.59;5082317;28;20061;-69
2023/11/03 03:54:03;;;;;;;13.88;2.80;;;;;;;6.60;100.00;97920.66;5084260;28;20505;-68
2023/11/03 03:56:29;;;;;;;15.48;3.17;;;;;;;6.61;100.00;97929.41;5081166;28;20559;-68
2023/11/03 03:58:55;;;;;;;16.77;3.28;;;;;;;6.57;100.00;97931.25;5084621;28;20126;-68
2023/11/03 04:01:22;;;;;;;18.30;3.05;;;;;;;6.56;100.00;97937.41;5081769;28;20068;-68
2023/11/03 04:03:48;;;;;;;16.58;3.30;;;;;;;6.59;100.00;97933.84;5083350;28;20395;-69
2023/11/03 04:06:13;;;;;;;16.25;3.22;;;;;;;6.63;100.00;97952.09;5082677;28;20028;-68
2023/11/03 04:08:39;;;;;;;17.75;3.50;;;;;;;6.66;100.00;97939.81;5082496;28;20028;-69
2023/11/03 04:11:05;;;;;;;16.80;3.38;;;;;;;6.57;100.00;97944.38;5083749;28;20032;-68
2023/11/03 04:13:31;;;;;;;18.45;3.47;;;;;;;6.57;100.00;97941.75;5081211;28;20048;-69
2023/11/03 04:15:56;;;;;;;13.98;3.28;;;;;;;6.54;100.00;97939.22;5084369;28;20056;-69
2023/11/03 04:18:22;;;;;;;19.13;3.53;;;;;;;6.55;100.00;97943.56;5081127;28;20039;-68
2023/11/03 04:20:47;;;;;;;18.95;3.78;;;;;;;6.49;100.00;97935.81;5083278;28;20494;-69
2023/11/03 04:23:13;;;;;;;18.40;3.60;;;;;;;6.45;100.00;97945.56;5082378;28;20033;-69
2023/11/03 04:25:39;;;;;;;17.65;3.58;;;;;;;6.44;100.00;97938.56;5081922;28;20436;-69
2023/11/03 04:28:08;;;;;;;19.33;3.45;;;;;;;6.47;100.00;97958.63;5083660;28;20034;-69
2023/11/03 04:30:37;;;;;;;18.92;4.00;;;;;;;6.47;100.00;97948.13;5063235;28;20043;-70
2023/11/03 04:33:03;;;;;;;18.88;3.80;;;;;;;6.47;100.00;97950.75;5083759;28;20425;-70
2023/11/03 04:35:29;;;;;;;17.25;3.90;;;;;;;6.46;100.00;97946.41;5081887;28;20487;-70
2023/11/03 04:37:54;;;;;;;18.83;3.70;;;;;;;6.47;100.00;97960.41;5088460;28;20020;-70
2023/11/03 04:40:21;;;;;;;17.90;4.13;;;;;;;6.45;100.00;97958.69;5085619;28;20372;-70
2023/11/03 04:42:50;;;;;;;19.10;3.63;;;;;;;6.44;100.00;97964.81;5087075;28;20028;-70
2023/11/03 04:45:16;;;;;;;18.48;4.10;;;;;;;6.46;100.00;97959.53;5086305;28;20437;-70
2023/11/03 04:47:42;;;;;;;22.02;4.63;;;;;;;6.49;100.00;97959.44;5085986;28;20473;-70
2023/11/03 04:50:10;;;;;;;20.50;3.78;;;;;;;6.41;100.00;97964.03;5087175;28;20103;-70
2023/11/03 04:52:36;;;;;;;19.63;3.90;;;;;;;6.41;100.00;97964.91;5085352;28;20025;-70
2023/11/03 04:55:01;;;;;;;17.85;3.92;;;;;;;6.44;100.00;97963.97;5087771;28;20485;-70
2023/11/03 04:57:27;;;;;;;19.45;4.10;;;;;;;6.48;100.00;97959.50;5084676;28;20028;-70
2023/11/03 04:59:53;;;;;;;19.98;3.90;;;;;;;6.42;100.00;97963.13;5087408;28;20082;-70
2023/11/03 05:02:19;;;;;;;21.25;4.10;;;;;;;6.42;100.00;97969.25;5085277;28;20518;-70
2023/11/03 05:04:44;;;;;;;19.38;4.10;;;;;;;6.40;100.00;97957.06;5086361;28;20463;-70
2023/11/03 05:07:10;;;;;;;20.80;4.32;;;;;;;6.40;100.00;97965.78;5086387;28;20363;-70
2023/11/03 05:09:36;;;;;;;20.55;3.78;;;;;;;6.38;100.00;97959.72;5067153;28;20031;-71
2023/11/03 05:12:03;;;;;;;20.52;4.15;;;;;;;6.40;100.00;97968.41;5087413;28;20463;-70
2023/11/03 05:14:29;;;;;;;21.05;4.10;;;;;;;6.36;100.00;97981.66;5084131;28;20029;-70
2023/11/03 05:16:55;;;;;;;21.52;3.83;;;;;;;6.41;100.00;97970.16;5087387;28;20385;-71
2023/11/03 05:19:20;;;;;;;21.77;4.57;;;;;;;6.38;100.00;97969.38;5084751;28;20033;-71
2023/11/03 05:21:46;;;;;;;20.02;4.05;;;;;;;6.39;100.00;97974.56;5086155;28;20028;-71
2023/11/03 05:24:11;;;;;;;20.85;3.67;;;;;;;6.38;100.00;97995.63;5085818;28;20436;-71
2023/11/03 05:26:37;;;;;;;20.98;3.75;;;;;;;6.41;100.00;97970.16;5084914;28;20035;-70
2023/11/03 05:29:03;;;;;;;20.38;3.92;;;;;;;6.40;100.00;97978.06;5086937;28;20378;-71
2023/11/03 05:31:29;;;;;;;19.23;3.58;;;;;;;6.39;100.00;97973.69;5083895;28;20079;-71
2023/11/03 05:33:54;;;;;;;19.27;3.80;;;;;;;6.41;100.00;97972.78;5087076;28;20509;-71
2023/11/03 05:36:19;;;;;;;19.23;3.50;;;;;;;6.39;100.00;97984.19;5084483;28;20028;-71
2023/11/03 05:38:45;;;;;;;20.73;3.60;;;;;;;6.38;100.00;97996.47;5085849;28;20032;-70
2023/11/03 05:41:13;;;;;;;21.05;3.78;;;;;;;6.40;100.00;98002.53;5067525;28;20032;-70
2023/11/03 05:43:38;;;;;;;19.83;3.60;;;;;;;6.36;100.00;98002.63;5084578;28;20035;-70
2023/11/03 05:46:04;;;;;;;15.32;3.03;;;;;;;6.38;100.00;98011.34;5086833;28;20470;-70
2023/11/03 05:48:29;;;;;;;18.00;3.30;;;;;;;6.35;100.00;98016.66;5082799;28;20036;-70
2023/11/03 05:50:56;;;;;;;16.00;3.15;;;;;;;6.36;100.00;98028.88;5086605;28;20032;-71
2023/11/03 05:53:21;;;;;;;19.45;3.30;;;;;;;6.38;100.00;98004.34;5084242;28;20111;-70
2023/11/03 05:55:47;;;;;;;19.60;3.42;;;;;;;6.39;100.00;98018.31;5085543;28;20158;-70
2023/11/03 05:58:12;;;;;;;18.58;3.33;;;;;;;6.43;100.00;98020.81;5085211;28;20024;-71
2023/11/03 06:00:38;;;;;;;18.33;2.95;;;;;;;6.41;100.00;98016.53;5084328;28;20501;-70
2023/11/03 06:03:03;;;;;;;18.23;3.28;;;;;;;6.41;100.00;98021.78;5086591;28;20043;-71
2023/11/03 06:05:29;;;;;;;18.20;3.10;;;;;;;6.38;100.00;98024.47;5083091;28;20383;-71
2023/11/03 06:07:54;;;;;;;18.38;3.08;;;;;;;6.37;100.00;98028.00;5086606;28;20467;-71
2023/11/03 06:10:20;;;;;;;17.30;2.90;;;;;;;6.39;100.00;98034.06;5083811;28;20054;-71
2023/11/03 06:12:46;;;;;;;17.98;3.22;;;;;;;6.35;100.00;98030.66;5085151;28;20379;-70
2023/11/03 06:15:13;;;;;;;16.00;3.30;;;;;;;6.31;100.00;98038.63;5085076;28;20066;-70
2023/11/03 06:17:39;;;;;;;15.35;3.15;;;;;;;6.23;100.00;98044.03;5083989;28;20028;-71
2023/11/03 06:20:05;;;;;;;18.65;3.05;;;;;;;6.26;100.00;98049.22;5086025;28;20028;-70
2023/11/03 06:22:31;;;;;;;19.17;3.20;;;;;;;6.21;100.00;98051.09;5082974;28;20078;-70
2023/11/03 06:24:57;;;;;;;16.60;2.92;;;;;;;6.19;100.00;98045.88;5083034;28;20029;-70
2023/11/03 06:27:22;;;;;;;16.85;3.40;;;;;;;6.24;100.00;98048.41;5086025;28;20051;-70
2023/11/03 06:29:47;;;;;;;18.42;3.20;;;;;;;6.23;100.00;98050.16;5083827;28;20121;-71
2023/11/03 06:32:13;;;;;;;19.23;3.30;;;;;;;6.16;100.00;98061.69;5066564;28;20070;-71
2023/11/03 06:34:39;;;;;;;18.48;3.20;;;;;;;6.17;100.00;98068.63;5067430;28;20386;-70
2023/11/03 06:37:05;;;;;;;18.48;3.10;;;;;;;6.16;100.00;98072.19;5083361;28;20039;-70
2023/11/03 06:39:30;;;;;;;20.92;3.60;;;;;;;6.15;100.00;98080.94;5086108;28;20036;-70
2023/11/03 06:41:56;;;;;;;17.25;3.10;;;;;;;6.11;100.00;98076.66;5082656;28;20020;-71
2023/11/03 06:44:21;;;;;;;20.83;3.20;;;;;;;6.13;100.00;98081.84;5085165;28;20047;-71
2023/11/03 06:46:46;;;;;;;17.58;3.30;;;;;;;6.11;100.00;98081.91;5083596;28;20115;-71
2023/11/03 06:49:12;;;;;;;18.70;3.45;;;;;;;6.16;100.00;98100.16;5083968;28;20031;-71
2023/11/03 06:51:37;;;;;;;20.75;3.30;;;;;;;6.22;100.00;98097.41;5084846;28;20493;-71
2023/11/03 06:54:04;;;;;;;17.95;3.25;;;;;;;6.20;100.00;98092.19;5082298;28;20475;-71
2023/11/03 06:56:30;;;;;;;17.55;3.50;;;;;;;6.17;100.00;98108.00;5086133;28;20428;-70
2023/11/03 06:58:55;;;;;;;18.60;3.50;;;;;;;6.19;100.00;98100.97;5081089;28;20028;-70
2023/11/03 07:01:20;;;;;;;17.70;3.50;;;;;;;6.17;100.00;98107.13;5084718;28;20493;-71
2023/11/03 07:03:46;;;;;;;17.35;3.05;;;;;;;6.18;100.00;98098.38;5065585;28;20377;-70
2023/11/03 07:06:13;;;;;;;17.13;3.08;;;;;;;6.20;100.00;98112.31;5083430;28;20040;-70
2023/11/03 07:08:38;;;;;;;18.40;3.30;;;;;;;6.21;100.00;98104.41;5084546;28;20089;-70
2023/11/03 07:11:04;;;;;;;18.83;3.28;;;;;;;6.26;100.00;98117.41;5082208;28;20050;-70
2023/11/03 07:13:29;;;;;;;20.23;3.60;;;;;;;6.28;100.00;98106.00;5085548;28;20051;-70
2023/11/03 07:15:55;;;;;;;19.23;3.20;;;;;;;6.41;100.00;98130.22;5082151;28;20166;-70
2023/11/03 07:18:21;;;;;;;17.77;3.30;;;;;;;6.42;100.00;98118.84;5084302;28;20034;-70
2023/11/03 07:20:47;;;;;;;16.92;2.88;;;;;;;6.50;100.00;98142.28;5064961;28;20040;-70
2023/11/03 07:23:13;;;;;;;16.23;2.95;;;;;;;6.57;100.00;98124.63;5065541;28;20021;-70
2023/11/03 07:25:39;;;;;;;18.85;3.00;;;;;;;6.58;100.00;98142.09;5084217;28;20454;-70
2023/11/03 07:28:05;;;;;;;17.25;3.15;;;;;;;6.58;100.00;98137.72;5063893;28;20067;-71
2023/11/03 07:30:30;;;;;;;15.77;2.80;;;;;;;6.62;100.00;98134.09;5085082;28;20052;-69
2023/11/03 07:32:56;;;;;;;18.95;3.22;;;;;;;6.69;100.00;98147.13;5081629;28;20063;-70
2023/11/03 07:35:22;;;;;;;16.92;2.92;;;;;;;6.79;100.00;98146.00;5084099;28;20367;-69
2023/11/03 07:37:47;;;;;;;19.27;3.33;;;;;;;6.79;100.00;98159.13;5082799;28;20080;-70
2023/11/03 07:40:14;;;;;;;16.33;2.90;;;;;;;6.86;100.00;98133.56;5082705;28;20036;-70
2023/11/03 07:42:40;;;;;;;17.40;3.30;;;;;;;6.92;100.00;98143.97;5083603;28;20052;-71
2023/11/03 07:45:07;;;;;;;17.58;3.20;;;;;;;6.90;100.00;98146.63;5081951;28;20040;-71
2023/11/03 07:47:33;;;;;;;15.07;2.92;;;;;;;6.97;100.00;98148.22;5084184;28;20379;-71
2023/11/03 07:49:58;;;;;;;16.52;3.08;;;;;;;7.03;100.00;98152.44;5080644;28;20029;-70
2023/11/03 07:52:24;;;;;;;16.27;2.95;;;;;;;7.05;100.00;98155.00;5065502;28;20032;-70
2023/11/03 07:54:49;;;;;;;17.73;3.00;;;;;;;7.13;100.00;98168.84;5063539;28;20024;-71
2023/11/03 07:57:14;;;;;;;20.20;3.42;;;;;;;7.16;100.00;98176.63;5082519;28;20036;-71
2023/11/03 07:59:43;;;;;;;19.25;3.20;;;;;;;7.18;100.00;98172.22;5082965;28;20024;-70
2023/11/03 08:02:09;;;;;;;19.38;3.33;;;;;;;7.18;100.00;98181.84;5082108;28;20081;-70
2023/11/03 08:04:35;;;;;;;17.00;3.05;;;;;;;7.29;100.00;98180.69;5084232;28;20604;-71
2023/11/03 08:07:00;;;;;;;18.08;3.10;;;;;;;7.30;100.00;98182.44;5081052;28;20111;-70
2023/11/03 08:09:29;;;;;;;18.55;3.42;;;;;;;7.33;100.00;98192.00;5066079;28;20111;-70
2023/11/03 08:11:55;;;;;;;17.67;2.90;;;;;;;7.28;100.00;98172.84;5081213;28;20025;-70
2023/11/03 08:14:20;;;;;;;16.50;3.08;;;;;;;7.32;100.00;98190.28;5083346;28;20165;-70
2023/11/03 08:56:05;;;;;;;14.75;2.80;;;;;;;9.33;100.00;98218.84;5151677;27;20389;-70
2023/11/03 08:58:31;;;;;;;17.33;3.20;;;;;;;9.64;100.00;98197.63;5139968;27;20039;-71
2023/11/03 09:00:56;;;;;;;12.75;2.80;;;;;;;9.86;100.00;98189.81;5141259;27;20035;-69
2023/11/03 09:03:22;;;;;;;17.67;2.97;;;;;;;10.02;100.00;98187.50;5140906;27;20027;-70
2023/11/03 09:05:48;;;;;;;15.98;2.90;;;;;;;10.28;100.00;98196.25;5140122;27;20072;-69
2023/11/03 09:08:13;;;;;;;13.60;2.85;;;;;;;10.62;100.00;98205.63;5123784;27;20027;-71
2023/11/03 09:10:40;;;;;;;15.30;3.05;;;;;;;10.84;100.00;98204.81;5139222;27;20458;-70
2023/11/03 09:13:06;;;;;;;17.85;3.30;;;;;;;10.79;100.00;98234.91;5142500;27;20919;-71
2023/11/03 09:15:31;;;;;;;18.85;3.10;;;;;;;10.82;100.00;98218.06;5139532;27;20025;-69
2023/11/03 09:31:23;;;;;;;16.27;2.92;;;;;;;10.03;100.00;98235.88;5090169;27;20405;-68
2023/11/03 09:33:48;;;;;;;15.52;2.95;;;;;;;9.82;100.00;98240.97;5078711;28;20033;-69
2023/11/03 09:36:16;;;;;;;18.65;3.47;;;;;;;9.72;100.00;98232.50;5080255;28;20391;-68
2023/11/03 09:38:42;;;;;;;17.30;3.30;;;;;;;9.75;100.00;98237.66;5079659;28;20053;-69
2023/11/03 09:41:10;;;;;;;19.83;3.25;;;;;;;9.82;100.00;98235.69;5079166;28;20502;-69
2023/11/03 09:43:35;;;;;;;18.63;3.20;;;;;;;9.79;100.00;98227.03;5080391;28;20033;-68
2023/11/03 09:46:01;;;;;;;18.17;3.22;;;;;;;9.76;100.00;98244.69;5078423;28;20027;-68
2023/11/03 09:48:29;;;;;;;16.80;3.25;;;;;;;9.62;100.00;98233.72;5081338;28;20028;-68
2023/11/03 09:50:55;;;;;;;16.23;3.20;;;;;;;9.53;100.00;98241.94;5074016;28;20025;-68
2023/11/03 09:53:27;;;;;;;18.08;3.38;;;;;;;9.44;100.00;98272.13;5080865;28;20124;-68
2023/11/03 09:55:57;;;;;;;17.27;3.00;;;;;;;9.27;100.00;98262.09;5077802;28;20036;-68
2023/11/03 09:58:22;;;;;;;18.13;3.00;;;;;;;9.22;100.00;98280.69;5080912;28;20032;-68
2023/11/03 10:00:48;;;;;;;18.00;3.30;;;;;;;9.15;100.00;98281.78;5078538;28;20123;-68
2023/11/03 10:03:13;;;;;;;19.75;3.28;;;;;;;9.13;100.00;98278.34;5079867;28;20029;-68
2023/11/03 10:05:39;;;;;;;17.52;3.28;;;;;;;9.16;100.00;98278.25;5079544;28;20415;-68
2023/11/03 10:08:14;;;;;;;16.23;3.25;;;;;;;9.20;100.00;98279.00;5078310;28;20075;-68
2023/11/03 10:10:39;;;;;;;18.27;3.10;;;;;;;9.14;100.00;98284.47;5079516;28;20043;-68
2023/11/03 10:13:09;;;;;;;20.38;3.50;;;;;;;9.16;100.00;98287.91;5078172;28;20115;-68
2023/11/03 10:15:35;;;;;;;17.35;3.08;;;;;;;9.15;100.00;98291.47;5079927;28;20029;-69
2023/11/03 10:18:01;;;;;;;17.38;3.42;;;;;;;9.16;100.00;98283.53;5077742;28;20025;-69
2023/11/03 10:20:27;;;;;;;17.63;3.33;;;;;;;9.16;100.00;98285.28;5080694;28;20036;-69
2023/11/03 10:22:53;;;;;;;18.30;3.28;;;;;;;9.22;100.00;98306.19;5077630;28;20028;-69
2023/11/03 10:25:18;;;;;;;19.45;3.70;;;;;;;9.28;100.00;98297.25;5080028;28;20032;-69
2023/11/03 10:27:48;;;;;;;19.75;3.20;;;;;;;9.39;100.00;98298.63;5078544;28;20039;-65
2023/11/03 10:30:15;;;;;;;17.92;3.22;;;;;;;9.37;100.00;98299.59;5066011;28;20057;-67
2023/11/03 10:32:43;;;;;;;19.55;3.28;;;;;;;9.40;100.00;98305.59;5045433;28;20108;-65
2023/11/03 10:35:11;;;;;;;20.17;3.20;;;;;;;9.43;100.00;98312.56;5045098;28;20492;-65
2023/11/03 10:37:38;;;;;;;18.25;3.10;;;;;;;9.56;100.00;98313.06;5045853;28;20132;-64
2023/11/03 10:40:05;;;;;;;18.25;3.25;;;;;;;9.60;100.00;98309.41;5044254;28;20034;-64
2023/11/03 10:42:32;;;;;;;19.60;3.40;;;;;;;9.63;100.00;98311.94;5046754;28;20033;-64
2023/11/03 10:44:58;;;;;;;19.90;3.40;;;;;;;9.74;100.00;98323.03;5043424;28;20049;-65
2023/11/03 10:47:27;;;;;;;18.65;3.28;;;;;;;9.92;100.00;98328.63;5047106;28;20039;-64
2023/11/03 10:50:05;;;;;;;17.35;3.20;;;;;;;10.24;100.00;98324.03;5043463;28;20033;-65
2023/11/03 10:52:41;;;;;;;18.38;3.08;;;;;;;10.26;100.00;98327.47;5040365;28;20032;-65
2023/11/03 10:55:13;;;;;;;15.52;3.03;;;;;;;10.15;100.00;98326.97;5045908;28;20025;-64
2023/11/03 10:57:40;;;;;;;18.52;3.45;;;;;;;9.98;100.00;98325.75;5044856;28;20084;-65
2023/11/03 11:00:17;;;;;;;17.13;3.30;;;;;;;9.92;100.00;98321.56;5045608;28;20032;-65
2023/11/03 11:03:06;;;;;;;18.10;3.10;;;;;;;10.00;100.00;98329.19;5044834;28;20104;-65
2023/11/03 11:05:55;;;;;;;19.02;3.17;;;;;;;9.99;100.00;98327.50;5040485;28;20032;-65
2023/11/03 11:08:23;;;;;;;20.00;3.53;;;;;;;9.94;100.00;98330.25;5043562;28;20100;-64
2023/11/03 11:10:50;;;;;;;19.40;3.20;;;;;;;9.94;100.00;98334.69;5045566;28;20033;-68
2023/11/03 11:13:21;;;;;;;17.85;3.10;;;;;;;9.95;100.00;98337.28;5043700;28;20021;-65
2023/11/03 11:15:55;;;;;;;17.63;2.90;;;;;;;9.97;100.00;98334.59;5045188;28;20036;-65
2023/11/03 11:18:21;;;;;;;17.73;3.10;;;;;;;9.97;100.00;98342.50;5043335;28;20032;-64
2023/11/03 11:20:52;;;;;;;13.82;2.63;;;;;;;9.98;100.00;98349.53;5045074;28;20045;-66
2023/11/03 11:23:19;;;;;;;18.40;3.15;;;;;;;9.96;100.00;98348.72;5043911;28;20086;-64
2023/11/03 11:25:44;;;;;;;17.45;3.13;;;;;;;10.06;100.00;98351.91;5044579;28;20541;-65
2023/11/03 11:28:39;;;;;;;19.45;3.58;;;;;;;10.06;100.00;98352.78;5044701;28;20037;-69
2023/11/03 11:31:26;;;;;;;16.67;2.92;;;;;;;10.06;100.00;98355.41;4997745;28;20073;-68
2023/11/03 11:34:05;;;;;;;15.50;3.00;;;;;;;10.17;100.00;98352.41;5006006;28;20476;-69
2023/11/03 11:36:34;;;;;;;16.65;2.97;;;;;;;10.27;100.00;98358.25;4999746;28;20038;-69
2023/11/03 11:39:22;;;;;;;18.50;3.55;;;;;;;10.43;100.00;98346.28;5006371;28;20037;-70
2023/11/03 11:41:54;;;;;;;16.33;3.13;;;;;;;10.65;100.00;98342.88;5004305;28;20432;-70
2023/11/03 11:44:25;;;;;;;15.93;2.80;;;;;;;10.93;100.00;98344.50;5003139;28;20038;-70
2023/11/03 11:46:54;;;;;;;18.52;3.00;;;;;;;11.14;100.00;98341.09;5005614;28;20499;-70
2023/11/03 11:49:21;;;;;;;18.25;3.03;;;;;;;11.15;100.00;98369.25;5003332;28;20026;-70
2023/11/03 11:51:48;;;;;;;15.82;2.97;;;;;;;11.29;100.00;98365.22;5005058;28;20030;-69
2023/11/03 11:54:16;;;;;;;16.52;3.00;;;;;;;11.65;100.00;98372.66;5004354;28;20034;-70
2023/11/03 11:56:41;;;;;;;17.55;3.00;;;;;;;11.84;100.00;98373.66;5004262;28;20045;-70
2023/11/03 11:59:09;;;;;;;17.60;3.10;;;;;;;11.93;100.00;98379.50;5004918;28;20022;-68
2023/11/03 12:01:34;;;;;;;16.80;3.13;;;;;;;12.26;100.00;98382.59;5003209;28;20477;-70
2023/11/03 12:04:04;;;;;;;17.65;2.83;;;;;;;12.18;100.00;98388.19;5005908;28;20033;-70
2023/11/03 12:06:30;;;;;;;18.45;2.95;;;;;;;12.14;100.00;98385.72;5002598;28;20031;-70
2023/11/03 12:08:58;;;;;;;16.23;2.90;;;;;;;11.94;100.00;98375.94;4998748;28;20034;-71
2023/11/03 12:11:24;;;;;;;15.77;2.95;;;;;;;11.72;100.00;98384.72;5005463;28;20041;-70
2023/11/03 12:13:50;;;;;;;17.42;3.22;;;;;;;11.71;100.00;98396.25;5003097;28;20022;-70
2023/11/03 12:16:17;;;;;;;19.70;3.20;;;;;;;12.23;100.00;98390.63;5004422;28;20027;-71